Time;durP1;ratioP1;P1;durP2;ratioP2;P2;SDS_P1;SDS_P2;PMS_P1;PMS_P2;Temp;Humidity;BMP_temperature;BMP_pressure;BME280_temperature;BME280_humidity;BME280_pressure;Samples;Min_cycle;Max_cycle;Signal;HPM_P1;HPM_P2
2023/07/16 00:00:50;;;;;;;4.90;3.65;;;20.00;99.90;;;;;;5032182;28;20065;-77
2023/07/16 00:03:16;;;;;;;5.60;3.25;;;20.00;99.90;;;;;;5031042;28;20021;-77
2023/07/16 00:05:42;;;;;;;8.63;3.97;;;20.00;99.90;;;;;;5032317;28;20026;-77
2023/07/16 00:08:07;;;;;;;4.03;3.25;;;20.00;99.90;;;;;;5031896;28;20495;-76
2023/07/16 00:10:36;;;;;;;3.75;3.20;;;20.00;99.90;;;;;;5031944;28;20030;-77
2023/07/16 00:13:02;;;;;;;4.68;3.92;;;20.00;99.90;;;;;;5032194;28;20029;-76
2023/07/16 00:15:29;;;;;;;6.25;3.40;;;19.90;99.90;;;;;;5031872;28;20509;-78
2023/07/16 00:17:54;;;;;;;3.45;3.13;;;19.90;99.90;;;;;;5031009;28;20057;-77
2023/07/16 00:20:21;;;;;;;3.60;3.22;;;19.90;99.90;;;;;;5032466;28;20053;-77
2023/07/16 00:22:46;;;;;;;4.15;3.75;;;19.90;99.90;;;;;;5032526;28;20433;-77
2023/07/16 00:25:12;;;;;;;3.72;3.17;;;19.90;99.90;;;;;;5032414;28;20475;-76
2023/07/16 00:27:38;;;;;;;5.40;3.90;;;19.80;99.90;;;;;;5032313;28;20029;-77
2023/07/16 00:30:04;;;;;;;7.53;4.43;;;19.70;99.90;;;;;;5031931;28;20032;-77
2023/07/16 00:32:30;;;;;;;5.25;3.50;;;19.70;99.90;;;;;;5031812;28;20029;-77
2023/07/16 00:34:55;;;;;;;5.15;4.53;;;19.90;99.90;;;;;;5031441;28;20087;-77
2023/07/16 00:37:21;;;;;;;5.07;3.55;;;19.90;99.90;;;;;;5031584;28;20029;-76
2023/07/16 00:39:46;;;;;;;7.28;4.38;;;19.90;99.90;;;;;;5031268;28;20022;-76
2023/07/16 00:42:12;;;;;;;6.43;3.38;;;19.80;99.90;;;;;;5033407;28;20029;-75
2023/07/16 00:44:38;;;;;;;5.53;4.85;;;19.80;99.90;;;;;;5035010;28;20017;-76
2023/07/16 00:47:03;;;;;;;5.85;3.85;;;19.80;99.90;;;;;;5033466;28;20021;-76
2023/07/16 00:49:29;;;;;;;4.45;3.53;;;19.80;99.90;;;;;;5034462;28;20051;-76
2023/07/16 00:51:55;;;;;;;4.75;3.75;;;19.70;99.90;;;;;;5033522;28;20037;-76
2023/07/16 00:54:22;;;;;;;5.53;4.35;;;19.70;99.90;;;;;;5034941;28;20095;-76
2023/07/16 00:56:48;;;;;;;4.25;3.50;;;19.70;99.90;;;;;;5034295;28;20071;-77
2023/07/16 00:59:14;;;;;;;4.47;3.88;;;19.60;99.90;;;;;;5034502;28;20152;-77
2023/07/16 01:01:39;;;;;;;3.97;3.58;;;19.60;99.90;;;;;;5035976;28;20045;-77
2023/07/16 01:04:05;;;;;;;6.22;4.72;;;19.60;99.90;;;;;;5033275;28;20025;-76
2023/07/16 01:06:38;;;;;;;8.13;3.92;;;19.60;99.90;;;;;;5034256;28;20391;-76
2023/07/16 01:09:07;;;;;;;5.38;3.83;;;19.60;99.90;;;;;;5034448;28;20021;-76
2023/07/16 01:11:35;;;;;;;6.43;3.70;;;19.50;99.90;;;;;;5034067;28;20118;-76
2023/07/16 01:14:03;;;;;;;3.30;3.00;;;19.50;99.90;;;;;;5032678;28;20025;-78
2023/07/16 01:16:28;;;;;;;5.55;3.55;;;19.50;99.90;;;;;;5032734;28;20048;-77
2023/07/16 01:18:54;;;;;;;4.88;3.90;;;19.50;99.90;;;;;;5034055;28;20022;-77
2023/07/16 01:21:22;;;;;;;5.18;3.67;;;19.50;99.90;;;;;;5034820;28;20079;-76
2023/07/16 01:24:11;;;;;;;6.28;3.80;;;19.50;99.90;;;;;;5033313;28;20116;-76
2023/07/16 01:26:58;;;;;;;8.05;4.28;;;19.50;99.90;;;;;;5033155;28;20565;-77
2023/07/16 01:29:32;;;;;;;4.47;3.80;;;19.40;99.90;;;;;;5032965;28;20029;-78
2023/07/16 01:32:00;;;;;;;6.32;3.30;;;19.40;99.90;;;;;;5034045;28;20033;-77
2023/07/16 01:34:28;;;;;;;6.07;3.40;;;19.00;99.90;;;;;;5034274;28;20033;-77
2023/07/16 01:36:54;;;;;;;3.78;3.28;;;19.20;99.90;;;;;;5034519;28;20029;-77
2023/07/16 01:39:20;;;;;;;3.70;3.30;;;19.20;99.90;;;;;;5034166;28;20026;-77
2023/07/16 01:41:45;;;;;;;6.18;3.72;;;19.20;99.90;;;;;;5034064;28;20376;-76
2023/07/16 01:44:11;;;;;;;4.28;3.72;;;19.20;99.90;;;;;;5032995;28;20029;-76
2023/07/16 01:46:37;;;;;;;4.85;3.65;;;19.30;99.90;;;;;;5033870;28;20025;-76
2023/07/16 01:49:03;;;;;;;6.15;3.45;;;19.30;99.90;;;;;;5033045;28;20022;-76
2023/07/16 01:51:28;;;;;;;5.40;3.63;;;19.30;99.90;;;;;;5034169;28;20032;-76
2023/07/16 01:53:54;;;;;;;5.78;4.00;;;19.30;99.90;;;;;;5033035;28;20465;-77
2023/07/16 01:56:20;;;;;;;6.55;4.32;;;19.30;99.90;;;;;;5034300;28;20504;-77
2023/07/16 01:58:45;;;;;;;3.70;3.25;;;19.20;99.90;;;;;;5034165;28;20021;-76
2023/07/16 02:01:11;;;;;;;8.10;3.53;;;19.20;99.90;;;;;;5034099;28;20105;-76
2023/07/16 02:03:36;;;;;;;6.88;3.85;;;19.10;99.90;;;;;;5033863;28;20025;-76
2023/07/16 02:06:02;;;;;;;4.90;4.10;;;19.10;99.90;;;;;;5034181;28;20029;-77
2023/07/16 02:08:28;;;;;;;6.32;3.70;;;19.10;99.90;;;;;;5032630;28;20025;-77
2023/07/16 02:10:53;;;;;;;4.60;3.70;;;19.10;99.90;;;;;;5033821;28;20079;-76
2023/07/16 02:13:19;;;;;;;8.93;3.78;;;19.10;99.90;;;;;;5031941;28;20025;-75
2023/07/16 02:15:45;;;;;;;5.38;3.58;;;19.00;99.90;;;;;;5033156;28;20052;-76
2023/07/16 02:18:11;;;;;;;4.93;3.85;;;18.90;99.90;;;;;;5033414;28;20025;-77
2023/07/16 02:20:36;;;;;;;4.50;3.67;;;18.90;99.90;;;;;;5033650;28;20025;-77
2023/07/16 02:23:02;;;;;;;4.40;3.72;;;18.90;99.90;;;;;;5033187;28;20079;-76
2023/07/16 02:25:28;;;;;;;4.50;3.53;;;18.90;99.90;;;;;;5032036;28;20441;-76
2023/07/16 02:27:53;;;;;;;4.88;3.60;;;18.90;99.90;;;;;;5032942;28;20081;-77
2023/07/16 02:30:19;;;;;;;4.47;3.65;;;18.90;99.90;;;;;;5033814;28;20139;-76
2023/07/16 02:32:44;;;;;;;7.82;3.92;;;18.90;99.90;;;;;;5033504;28;20022;-77
2023/07/16 02:35:10;;;;;;;4.30;3.70;;;18.80;99.90;;;;;;5033410;28;20029;-77
2023/07/16 02:37:36;;;;;;;4.90;3.83;;;18.80;99.90;;;;;;5033177;28;20100;-76
2023/07/16 02:40:02;;;;;;;4.82;3.40;;;18.80;99.90;;;;;;5033191;28;20434;-76
2023/07/16 02:42:29;;;;;;;3.80;3.45;;;18.80;99.90;;;;;;5033195;28;20114;-76
2023/07/16 02:44:54;;;;;;;6.28;3.60;;;18.80;99.90;;;;;;5032775;28;20544;-76
2023/07/16 02:47:20;;;;;;;8.15;3.35;;;18.80;99.90;;;;;;5033089;28;20033;-76
2023/07/16 02:49:45;;;;;;;6.47;3.80;;;18.80;99.90;;;;;;5033187;28;20037;-76
2023/07/16 02:52:11;;;;;;;4.47;3.90;;;18.80;99.90;;;;;;5033168;28;20025;-77
2023/07/16 02:54:37;;;;;;;6.72;4.10;;;18.80;99.90;;;;;;5032825;28;20092;-77
2023/07/16 02:57:03;;;;;;;4.50;4.07;;;18.90;99.90;;;;;;5033097;28;20061;-77
2023/07/16 02:59:29;;;;;;;8.20;4.18;;;18.80;99.90;;;;;;5031398;28;20548;-76
2023/07/16 03:01:55;;;;;;;5.97;4.60;;;18.80;99.90;;;;;;5032321;28;20029;-76
2023/07/16 03:04:20;;;;;;;5.10;4.57;;;18.90;99.90;;;;;;5030530;28;20059;-76
2023/07/16 03:06:46;;;;;;;11.02;4.10;;;18.80;99.90;;;;;;5032690;28;20048;-76
2023/07/16 03:09:11;;;;;;;8.32;3.92;;;18.80;99.90;;;;;;5032637;28;20501;-76
2023/07/16 03:11:37;;;;;;;4.57;4.18;;;18.90;99.90;;;;;;5032349;28;20033;-76
2023/07/16 03:14:03;;;;;;;5.38;3.90;;;18.80;99.90;;;;;;5032111;28;20470;-76
2023/07/16 03:16:29;;;;;;;8.27;4.88;;;18.80;99.90;;;;;;5031160;28;20521;-76
2023/07/16 03:18:54;;;;;;;5.07;3.90;;;18.70;99.90;;;;;;5031213;28;20055;-76
2023/07/16 03:21:20;;;;;;;9.15;3.67;;;18.80;99.90;;;;;;5031746;28;20056;-77
2023/07/16 03:23:46;;;;;;;5.38;3.92;;;18.70;99.90;;;;;;5031701;28;20047;-77
2023/07/16 03:26:11;;;;;;;4.40;4.00;;;18.70;99.90;;;;;;5032614;28;20034;-76
2023/07/16 03:28:37;;;;;;;7.40;4.35;;;18.70;99.90;;;;;;5030699;28;20035;-76
2023/07/16 03:31:03;;;;;;;4.60;3.97;;;18.70;99.90;;;;;;5032487;28;20429;-76
2023/07/16 03:33:28;;;;;;;4.57;3.58;;;18.60;99.90;;;;;;5032458;28;20033;-76
2023/07/16 03:35:54;;;;;;;4.53;3.85;;;18.60;99.90;;;;;;5032549;28;20116;-77
2023/07/16 03:38:20;;;;;;;3.85;3.45;;;18.60;99.90;;;;;;5031188;28;20075;-77
2023/07/16 03:40:49;;;;;;;5.72;3.97;;;18.60;99.90;;;;;;5032485;28;20030;-77
2023/07/16 03:43:16;;;;;;;4.68;4.07;;;18.70;99.90;;;;;;5032582;28;20022;-77
2023/07/16 03:45:42;;;;;;;6.50;4.45;;;18.80;99.90;;;;;;5032442;28;20093;-77
2023/07/16 03:48:07;;;;;;;5.85;4.10;;;18.90;99.90;;;;;;5032123;28;20060;-77
2023/07/16 03:50:34;;;;;;;4.75;4.07;;;18.80;99.90;;;;;;5032180;28;20025;-76
2023/07/16 03:53:00;;;;;;;13.15;4.22;;;18.80;99.90;;;;;;5030871;28;20053;-76
2023/07/16 03:55:25;;;;;;;9.32;4.22;;;18.90;99.90;;;;;;5030834;28;20494;-76
2023/07/16 03:57:51;;;;;;;6.88;4.72;;;18.90;99.90;;;;;;5032090;28;20494;-78
2023/07/16 04:00:17;;;;;;;8.27;5.10;;;18.80;99.90;;;;;;5030791;28;20026;-76
2023/07/16 04:02:43;;;;;;;5.82;4.93;;;19.00;99.90;;;;;;5032171;28;20088;-76
2023/07/16 04:05:09;;;;;;;6.65;4.25;;;19.00;99.90;;;;;;5031807;28;20057;-74
2023/07/16 04:07:35;;;;;;;5.00;4.35;;;18.90;99.90;;;;;;5031464;28;20069;-76
2023/07/16 04:10:00;;;;;;;5.65;4.57;;;18.90;99.90;;;;;;5031794;28;20061;-77
2023/07/16 04:12:26;;;;;;;5.28;4.13;;;19.00;99.90;;;;;;5030426;28;20124;-76
2023/07/16 04:14:57;;;;;;;4.88;4.03;;;19.00;99.90;;;;;;5031599;28;20061;-78
2023/07/16 04:17:24;;;;;;;5.22;4.50;;;19.00;99.90;;;;;;5035310;28;20393;-76
2023/07/16 04:19:49;;;;;;;6.97;4.97;;;19.00;99.90;;;;;;5034253;28;20021;-77
2023/07/16 04:22:15;;;;;;;5.25;4.45;;;19.10;99.90;;;;;;5036319;28;20124;-76
2023/07/16 04:24:41;;;;;;;10.63;5.05;;;19.20;99.90;;;;;;5035888;28;20088;-76
2023/07/16 04:27:06;;;;;;;6.95;4.40;;;19.30;99.90;;;;;;5035787;28;20108;-77
2023/07/16 04:29:32;;;;;;;9.23;6.13;;;19.40;99.90;;;;;;5035371;28;20028;-77
2023/07/16 04:31:58;;;;;;;5.43;4.35;;;19.50;99.90;;;;;;5035436;28;20079;-76
2023/07/16 04:34:24;;;;;;;5.90;5.28;;;19.60;99.90;;;;;;5035323;28;20104;-76
2023/07/16 04:36:50;;;;;;;4.65;4.05;;;19.70;99.90;;;;;;5035001;28;20108;-76
2023/07/16 04:39:15;;;;;;;5.15;4.22;;;19.70;99.90;;;;;;5035176;28;20036;-78
2023/07/16 04:41:41;;;;;;;6.47;5.13;;;19.70;99.90;;;;;;5035024;28;20030;-76
2023/07/16 04:44:07;;;;;;;7.13;4.85;;;19.70;99.90;;;;;;5034922;28;20040;-76
2023/07/16 04:46:33;;;;;;;5.22;4.70;;;19.70;99.90;;;;;;5035091;28;20017;-76
2023/07/16 04:48:59;;;;;;;6.93;4.93;;;19.80;99.90;;;;;;5035171;28;20047;-76
2023/07/16 04:51:25;;;;;;;6.07;5.47;;;19.80;99.90;;;;;;5033659;28;20478;-76
2023/07/16 04:53:50;;;;;;;6.55;5.20;;;19.80;99.90;;;;;;5034961;28;20018;-76
2023/07/16 04:56:16;;;;;;;6.85;4.45;;;19.90;99.90;;;;;;5035008;28;20024;-76
2023/07/16 04:58:42;;;;;;;7.78;5.03;;;20.00;99.90;;;;;;5034841;28;20467;-77
2023/07/16 05:01:09;;;;;;;6.13;4.40;;;20.00;99.90;;;;;;5034998;28;20705;-76
2023/07/16 05:03:35;;;;;;;7.50;4.97;;;20.10;99.90;;;;;;5034761;28;20083;-76
2023/07/16 05:06:01;;;;;;;5.90;4.15;;;20.10;99.90;;;;;;5034658;28;20025;-77
2023/07/16 05:08:27;;;;;;;6.20;5.05;;;20.20;99.90;;;;;;5034390;28;20021;-76
2023/07/16 05:10:52;;;;;;;5.65;4.65;;;20.30;99.90;;;;;;5034280;28;20026;-76
2023/07/16 05:13:18;;;;;;;6.03;4.38;;;20.50;99.90;;;;;;5034793;28;20021;-77
2023/07/16 05:15:44;;;;;;;5.78;4.38;;;21.30;99.90;;;;;;5035526;28;20033;-78
2023/07/16 05:18:10;;;;;;;11.63;6.95;;;21.70;99.90;;;;;;5036676;28;20160;-78
2023/07/16 05:20:36;;;;;;;8.40;4.93;;;22.10;99.90;;;;;;5036686;28;20075;-78
2023/07/16 05:23:01;;;;;;;4.93;4.43;;;22.50;99.90;;;;;;5036992;28;20021;-78
2023/07/16 05:25:27;;;;;;;6.43;5.40;;;22.70;99.90;;;;;;5035682;28;20485;-77
2023/07/16 05:27:53;;;;;;;5.10;4.57;;;22.60;99.90;;;;;;5035916;28;20474;-78
2023/07/16 05:30:18;;;;;;;5.90;5.18;;;22.40;99.90;;;;;;5035838;28;20048;-78
2023/07/16 05:32:44;;;;;;;6.30;5.13;;;22.50;99.90;;;;;;5035977;28;20368;-77
2023/07/16 05:35:10;;;;;;;6.55;5.82;;;22.60;99.90;;;;;;5036216;28;20486;-78
2023/07/16 05:37:35;;;;;;;8.40;6.50;;;22.70;99.90;;;;;;5036255;28;20044;-77
2023/07/16 05:40:02;;;;;;;9.60;8.55;;;22.70;99.90;;;;;;5036626;28;20029;-77
2023/07/16 05:42:28;;;;;;;7.63;6.85;;;22.90;99.90;;;;;;5036651;28;20021;-77
2023/07/16 05:44:54;;;;;;;8.95;5.97;;;23.00;99.90;;;;;;5036619;28;20497;-77
2023/07/16 05:47:20;;;;;;;10.00;7.93;;;23.10;99.90;;;;;;5036001;28;20029;-77
2023/07/16 05:49:45;;;;;;;9.00;8.05;;;23.20;99.90;;;;;;5035118;28;20025;-77
2023/07/16 05:52:11;;;;;;;8.45;7.30;;;23.40;99.90;;;;;;5036117;28;20622;-78
2023/07/16 05:54:37;;;;;;;5.55;4.47;;;23.50;99.90;;;;;;5036527;28;20028;-78
2023/07/16 05:57:03;;;;;;;11.80;5.60;;;23.60;99.90;;;;;;5035274;28;20030;-78
2023/07/16 05:59:28;;;;;;;6.68;5.43;;;23.70;99.90;;;;;;5036306;28;20021;-77
2023/07/16 06:01:55;;;;;;;8.98;6.10;;;23.70;99.90;;;;;;5034743;28;20021;-76
2023/07/16 06:04:20;;;;;;;5.72;4.82;;;23.70;99.90;;;;;;5036086;28;20104;-77
2023/07/16 06:06:46;;;;;;;6.53;5.35;;;23.70;99.90;;;;;;5036458;28;20068;-77
2023/07/16 06:09:12;;;;;;;12.68;4.68;;;23.90;99.90;;;;;;5036181;28;20467;-78
2023/07/16 06:11:37;;;;;;;6.93;5.75;;;23.90;99.90;;;;;;5034495;28;20112;-78
2023/07/16 06:14:03;;;;;;;6.78;4.45;;;24.00;99.90;;;;;;5034203;28;20405;-77
2023/07/16 06:16:28;;;;;;;12.73;5.93;;;24.00;99.90;;;;;;5035554;28;20040;-77
2023/07/16 06:18:54;;;;;;;6.25;4.68;;;24.10;99.90;;;;;;5034382;28;20474;-77
2023/07/16 06:21:20;;;;;;;6.40;5.25;;;24.30;99.90;;;;;;5033071;28;20030;-77
2023/07/16 06:23:45;;;;;;;11.52;5.40;;;24.20;99.90;;;;;;5033163;28;20032;-77
2023/07/16 06:26:11;;;;;;;5.32;4.53;;;24.30;99.90;;;;;;5032865;28;20173;-76
2023/07/16 06:28:37;;;;;;;6.05;4.97;;;24.30;99.90;;;;;;5032430;28;20018;-76
2023/07/16 06:31:02;;;;;;;7.78;4.80;;;24.40;99.90;;;;;;5032771;28;20030;-77
2023/07/16 06:33:28;;;;;;;4.18;3.75;;;24.50;99.90;;;;;;5032776;28;20052;-77
2023/07/16 06:35:54;;;;;;;6.75;4.63;;;24.70;99.90;;;;;;5032888;28;20025;-77
2023/07/16 06:38:19;;;;;;;4.35;3.78;;;24.80;99.90;;;;;;5031937;28;20469;-77
2023/07/16 06:40:49;;;;;;;6.32;4.25;;;25.00;99.90;;;;;;5032179;28;20026;-77
2023/07/16 06:43:15;;;;;;;12.00;4.43;;;25.20;99.90;;;;;;5032716;28;20025;-77
2023/07/16 06:45:41;;;;;;;5.93;4.85;;;25.30;99.90;;;;;;5033156;28;20029;-77
2023/07/16 06:48:07;;;;;;;4.20;3.80;;;25.40;99.90;;;;;;5034666;28;20025;-78
2023/07/16 06:50:32;;;;;;;7.10;4.35;;;25.60;99.90;;;;;;5034068;28;20029;-76
2023/07/16 06:52:58;;;;;;;4.45;4.05;;;25.70;99.90;;;;;;5033488;28;20025;-75
2023/07/16 06:55:23;;;;;;;6.50;4.03;;;25.80;99.90;;;;;;5031065;28;20044;-76
2023/07/16 06:57:49;;;;;;;5.88;4.78;;;26.00;99.90;;;;;;5032082;28;20037;-78
2023/07/16 07:00:15;;;;;;;7.53;3.90;;;26.10;99.90;;;;;;5032696;28;20028;-76
2023/07/16 07:02:41;;;;;;;5.57;4.50;;;26.10;99.90;;;;;;5031086;28;20022;-76
2023/07/16 07:05:07;;;;;;;6.15;4.35;;;26.40;99.90;;;;;;5031877;28;20017;-76
2023/07/16 07:07:33;;;;;;;3.80;3.45;;;26.60;99.90;;;;;;5032192;28;20292;-76
2023/07/16 07:09:58;;;;;;;4.63;3.95;;;26.70;99.90;;;;;;5032395;28;20076;-74
2023/07/16 07:12:24;;;;;;;4.50;3.60;;;26.80;99.90;;;;;;5031867;28;20035;-76
2023/07/16 07:14:50;;;;;;;4.07;3.55;;;27.00;99.90;;;;;;5032050;28;20026;-78
2023/07/16 07:17:15;;;;;;;3.90;3.60;;;27.10;99.90;;;;;;5030651;28;20120;-76
2023/07/16 07:19:42;;;;;;;4.32;2.80;;;27.40;99.90;;;;;;5032168;28;20021;-76
2023/07/16 07:22:08;;;;;;;3.67;3.30;;;27.50;99.90;;;;;;5032589;28;20021;-76
2023/07/16 07:24:33;;;;;;;5.30;3.47;;;27.60;99.90;;;;;;5032449;28;20021;-76
2023/07/16 07:26:59;;;;;;;3.33;2.90;;;27.80;99.90;;;;;;5032163;28;20156;-76
2023/07/16 07:29:24;;;;;;;4.55;3.28;;;28.00;99.00;;;;;;5033477;28;20053;-77
2023/07/16 07:31:50;;;;;;;6.28;2.85;;;28.10;97.60;;;;;;5033682;28;20033;-77
2023/07/16 07:34:16;;;;;;;5.07;3.17;;;28.20;97.90;;;;;;5032787;28;20040;-78
2023/07/16 07:36:41;;;;;;;3.45;3.10;;;28.50;99.90;;;;;;5033454;28;20390;-77
2023/07/16 07:39:07;;;;;;;3.30;3.00;;;28.50;96.80;;;;;;5032844;28;20032;-77
2023/07/16 07:41:33;;;;;;;3.15;2.92;;;28.60;97.20;;;;;;5033935;28;20048;-77
2023/07/16 07:43:59;;;;;;;3.13;2.90;;;28.90;98.70;;;;;;5032187;28;20048;-77
2023/07/16 07:46:24;;;;;;;3.30;2.83;;;29.20;97.40;;;;;;5034976;28;20041;-78
2023/07/16 07:48:50;;;;;;;4.40;2.92;;;29.10;94.50;;;;;;5033392;28;20030;-77
2023/07/16 07:51:16;;;;;;;2.40;2.20;;;29.20;92.30;;;;;;5038324;28;20029;-78
2023/07/16 07:53:41;;;;;;;2.95;2.60;;;29.10;88.30;;;;;;5038291;28;20048;-77
2023/07/16 07:56:07;;;;;;;4.65;2.22;;;29.20;86.10;;;;;;5038594;28;20025;-78
2023/07/16 07:58:33;;;;;;;3.60;2.42;;;29.40;83.80;;;;;;5038329;28;20029;-78
2023/07/16 08:01:06;;;;;;;3.05;2.50;;;29.70;87.10;;;;;;5038086;28;20026;-78
2023/07/16 08:03:31;;;;;;;3.05;2.38;;;29.80;84.90;;;;;;5037054;28;20028;-77
2023/07/16 08:05:57;;;;;;;3.35;2.58;;;29.80;84.50;;;;;;5037852;28;20050;-77
2023/07/16 08:08:23;;;;;;;3.60;2.55;;;29.90;89.20;;;;;;5038124;28;20037;-77
2023/07/16 08:10:48;;;;;;;3.65;2.88;;;30.10;89.40;;;;;;5038329;28;20029;-77
2023/07/16 08:13:14;;;;;;;2.88;2.38;;;30.20;87.80;;;;;;5038615;28;20553;-77
2023/07/16 08:15:40;;;;;;;3.13;2.88;;;30.20;89.80;;;;;;5036994;28;20548;-77
2023/07/16 08:18:06;;;;;;;5.80;2.47;;;30.50;89.10;;;;;;5038116;28;20433;-77
2023/07/16 08:20:32;;;;;;;3.30;2.40;;;30.50;86.30;;;;;;5038530;28;20120;-77
2023/07/16 08:22:57;;;;;;;6.78;2.50;;;30.50;86.20;;;;;;5038823;28;20022;-78
2023/07/16 08:25:23;;;;;;;3.40;2.42;;;30.50;83.40;;;;;;5036163;28;20045;-78
2023/07/16 08:27:49;;;;;;;7.35;2.78;;;30.60;80.30;;;;;;5036635;28;20401;-78
2023/07/16 08:30:15;;;;;;;2.70;2.50;;;30.30;78.80;;;;;;5038044;28;20026;-78
2023/07/16 08:32:40;;;;;;;2.97;2.30;;;30.40;80.70;;;;;;5037538;28;20029;-79
2023/07/16 08:35:06;;;;;;;4.43;2.28;;;30.60;79.90;;;;;;5035668;28;20115;-76
2023/07/16 08:37:32;;;;;;;2.40;2.25;;;30.80;81.00;;;;;;5036427;28;20045;-78
2023/07/16 08:39:58;;;;;;;1.92;1.70;;;31.10;76.30;;;;;;5036506;28;20061;-76
2023/07/16 08:42:24;;;;;;;2.15;1.88;;;30.90;71.50;;;;;;5038391;28;20017;-78
2023/07/16 08:44:50;;;;;;;3.08;1.65;;;30.90;70.60;;;;;;5038100;28;20021;-78
2023/07/16 08:47:16;;;;;;;4.40;1.67;;;31.10;69.50;;;;;;5036845;28;20485;-77
2023/07/16 08:49:53;;;;;;;1.80;1.70;;;31.30;69.20;;;;;;5037244;28;20078;-77
2023/07/16 08:52:19;;;;;;;2.83;1.60;;;31.30;64.40;;;;;;5037053;28;20021;-78
2023/07/16 08:54:44;;;;;;;1.75;1.65;;;31.30;68.80;;;;;;5036568;28;20060;-75
2023/07/16 08:57:10;;;;;;;1.00;0.95;;;31.40;67.80;;;;;;5037605;28;20155;-78
2023/07/16 08:59:36;;;;;;;1.73;1.30;;;31.20;65.50;;;;;;5034533;28;20478;-77
2023/07/16 09:02:03;;;;;;;1.50;1.40;;;31.00;63.10;;;;;;5035516;28;20022;-78
2023/07/16 09:04:29;;;;;;;1.30;1.20;;;31.10;63.80;;;;;;5037388;28;20026;-77
2023/07/16 09:06:55;;;;;;;1.65;1.55;;;31.20;63.30;;;;;;5037038;28;20103;-78
2023/07/16 09:09:24;;;;;;;2.50;1.88;;;31.10;61.60;;;;;;5037473;28;20029;-77
2023/07/16 09:11:50;;;;;;;1.25;1.23;;;31.00;62.50;;;;;;5036950;28;20026;-76
2023/07/16 09:14:18;;;;;;;1.42;1.33;;;30.90;61.50;;;;;;5037142;28;20033;-76
2023/07/16 09:16:46;;;;;;;1.95;1.75;;;30.70;62.60;;;;;;5036828;28;20063;-77
2023/07/16 09:19:15;;;;;;;1.67;1.58;;;30.90;64.40;;;;;;5037515;28;20037;-75
2023/07/16 09:21:40;;;;;;;2.97;1.95;;;31.10;65.50;;;;;;5037091;28;20054;-78
2023/07/16 09:24:08;;;;;;;1.48;1.38;;;31.30;64.50;;;;;;5035274;28;20026;-75
2023/07/16 09:26:36;;;;;;;2.70;2.08;;;31.40;62.60;;;;;;5035167;28;20513;-78
2023/07/16 09:29:06;;;;;;;1.85;1.52;;;31.60;62.90;;;;;;5034045;28;20037;-76
2023/07/16 09:31:32;;;;;;;2.15;1.38;;;31.70;61.20;;;;;;5036632;28;20071;-77
2023/07/16 09:33:58;;;;;;;1.63;1.50;;;31.50;62.10;;;;;;5036886;28;20108;-76
2023/07/16 09:36:27;;;;;;;1.73;1.63;;;31.50;61.30;;;;;;5034875;28;20025;-76
2023/07/16 09:38:57;;;;;;;4.53;1.90;;;31.60;60.50;;;;;;5035822;28;20028;-75
2023/07/16 09:41:23;;;;;;;5.63;1.90;;;31.60;60.90;;;;;;5037177;28;20029;-77
2023/07/16 09:43:49;;;;;;;6.57;1.90;;;31.30;59.60;;;;;;5035289;28;20021;-78
2023/07/16 09:46:14;;;;;;;3.58;1.48;;;31.10;60.70;;;;;;5035007;28;20029;-78
2023/07/16 09:48:40;;;;;;;1.60;1.50;;;31.20;60.30;;;;;;5035433;28;20064;-78
2023/07/16 09:51:09;;;;;;;2.38;1.77;;;31.00;59.40;;;;;;5035995;28;20030;-76
2023/07/16 09:53:36;;;;;;;2.42;1.83;;;31.20;60.20;;;;;;5034135;28;20052;-76
2023/07/16 09:56:04;;;;;;;2.33;1.60;;;31.40;59.60;;;;;;5034920;28;20425;-77
2023/07/16 09:58:30;;;;;;;2.22;1.60;;;31.60;60.30;;;;;;5035079;28;20052;-76
2023/07/16 10:00:56;;;;;;;4.28;1.77;;;31.70;60.80;;;;;;5035630;28;20044;-78
2023/07/16 10:03:22;;;;;;;1.50;1.40;;;31.70;61.20;;;;;;5035870;28;20033;-78
2023/07/16 10:05:49;;;;;;;1.90;1.70;;;31.80;59.30;;;;;;5034537;28;20018;-76
2023/07/16 10:08:20;;;;;;;8.60;1.67;;;31.70;56.70;;;;;;5034393;28;20025;-77
2023/07/16 10:10:53;;;;;;;2.00;1.90;;;31.80;56.40;;;;;;5034513;28;20112;-77
2023/07/16 10:13:23;;;;;;;4.40;1.42;;;31.90;55.70;;;;;;5035060;28;20436;-77
2023/07/16 10:15:53;;;;;;;1.90;1.63;;;31.90;57.20;;;;;;5034696;28;20033;-75
2023/07/16 10:18:35;;;;;;;1.85;1.50;;;32.00;56.10;;;;;;5033764;28;20071;-77
2023/07/16 10:21:08;;;;;;;1.95;1.58;;;32.10;58.10;;;;;;5034550;28;20028;-76
2023/07/16 10:24:02;;;;;;;2.15;1.50;;;32.30;57.20;;;;;;5034833;28;20029;-76
2023/07/16 10:26:29;;;;;;;1.30;1.20;;;32.50;55.80;;;;;;5032140;28;20413;-77
2023/07/16 10:28:55;;;;;;;6.40;2.42;;;32.60;54.80;;;;;;5033625;28;20258;-78
2023/07/16 10:31:25;;;;;;;4.03;1.48;;;32.60;54.80;;;;;;5033358;28;20098;-76
2023/07/16 10:34:08;;;;;;;1.77;1.67;;;32.40;54.20;;;;;;5034967;28;20032;-77
2023/07/16 10:36:40;;;;;;;2.40;1.88;;;32.20;56.30;;;;;;5033047;28;20516;-76
2023/07/16 10:39:06;;;;;;;1.92;1.73;;;32.20;55.90;;;;;;5033569;28;20536;-78
2023/07/16 10:41:32;;;;;;;1.98;1.88;;;32.20;55.10;;;;;;5034675;28;20018;-77
2023/07/16 10:43:59;;;;;;;1.50;1.40;;;32.40;55.40;;;;;;5032309;28;20025;-77
2023/07/16 10:46:25;;;;;;;1.50;1.35;;;32.70;57.10;;;;;;5031945;28;20025;-78
2023/07/16 10:48:51;;;;;;;4.28;2.10;;;32.90;57.30;;;;;;5032842;28;20029;-75
2023/07/16 10:51:16;;;;;;;3.13;2.85;;;33.10;55.70;;;;;;5033832;28;20075;-77
2023/07/16 10:53:45;;;;;;;3.50;1.63;;;33.00;56.10;;;;;;5033976;28;20482;-78
2023/07/16 10:56:11;;;;;;;3.00;1.88;;;33.00;54.30;;;;;;5034277;28;20028;-76
2023/07/16 10:58:37;;;;;;;1.88;1.67;;;33.00;57.00;;;;;;5032962;28;20033;-76
2023/07/16 11:01:03;;;;;;;2.40;1.60;;;32.90;56.30;;;;;;5034291;28;20029;-76
2023/07/16 11:03:29;;;;;;;1.35;1.25;;;33.20;55.40;;;;;;5033135;28;20539;-77
2023/07/16 11:05:54;;;;;;;1.58;1.48;;;33.30;55.10;;;;;;5034988;28;20147;-77
2023/07/16 11:08:24;;;;;;;1.50;1.40;;;33.20;55.10;;;;;;5034395;28;20497;-76
2023/07/16 11:10:57;;;;;;;5.28;1.52;;;33.10;55.80;;;;;;5034504;28;20398;-76
2023/07/16 11:13:31;;;;;;;3.25;1.50;;;33.30;57.50;;;;;;5035208;28;20052;-77
2023/07/16 11:15:57;;;;;;;1.55;1.30;;;33.40;56.70;;;;;;5033318;28;20042;-78
2023/07/16 11:18:26;;;;;;;1.83;1.60;;;33.30;56.00;;;;;;5032675;28;20401;-76
2023/07/16 11:20:53;;;;;;;2.15;1.60;;;32.80;52.30;;;;;;5034641;28;20411;-77
2023/07/16 11:23:19;;;;;;;1.85;1.50;;;32.90;52.90;;;;;;5034340;28;20032;-77
2023/07/16 11:25:48;;;;;;;4.88;1.50;;;33.20;54.40;;;;;;5033276;28;20045;-75
2023/07/16 11:28:14;;;;;;;1.77;1.52;;;33.30;56.40;;;;;;5033798;28;20052;-77
2023/07/16 11:30:40;;;;;;;2.47;1.38;;;33.60;55.90;;;;;;5032875;28;20049;-77
2023/07/16 11:33:11;;;;;;;1.95;1.63;;;33.60;54.80;;;;;;5032813;28;20029;-74
2023/07/16 11:35:38;;;;;;;4.85;1.52;;;33.80;55.00;;;;;;5034452;28;20044;-77
2023/07/16 11:38:07;;;;;;;3.10;1.50;;;34.00;55.10;;;;;;5032353;28;20022;-75
2023/07/16 11:40:35;;;;;;;2.65;1.20;;;34.10;53.30;;;;;;5033661;28;20064;-74
2023/07/16 11:43:11;;;;;;;1.83;1.65;;;34.30;52.60;;;;;;5033629;28;20483;-77
2023/07/16 11:45:37;;;;;;;1.58;1.48;;;33.90;51.80;;;;;;5033233;28;20049;-75
2023/07/16 11:48:04;;;;;;;1.40;1.30;;;33.80;51.90;;;;;;5032645;28;20108;-76
2023/07/16 11:50:30;;;;;;;1.90;1.40;;;33.40;51.30;;;;;;5032410;28;20033;-75
2023/07/16 11:53:00;;;;;;;3.95;2.17;;;33.30;52.70;;;;;;5032314;28;20029;-76
2023/07/16 11:55:26;;;;;;;3.90;1.27;;;33.10;51.30;;;;;;5033710;28;20029;-76
2023/07/16 11:57:52;;;;;;;1.52;1.30;;;33.00;52.40;;;;;;5033708;28;20101;-75
2023/07/16 12:00:18;;;;;;;1.58;1.48;;;33.20;55.50;;;;;;5033374;28;20470;-76
2023/07/16 12:02:50;;;;;;;1.45;1.35;;;33.50;53.90;;;;;;5033173;28;20025;-77
2023/07/16 12:05:20;;;;;;;1.40;1.30;;;33.80;56.90;;;;;;5033607;28;20026;-76
2023/07/16 12:07:46;;;;;;;2.08;1.40;;;33.70;54.50;;;;;;5033287;28;20153;-76
2023/07/16 12:10:12;;;;;;;2.53;1.63;;;33.50;55.30;;;;;;5033315;28;20107;-77
2023/07/16 12:12:38;;;;;;;4.32;1.73;;;33.40;57.70;;;;;;5033113;28;20104;-75
2023/07/16 12:15:07;;;;;;;2.20;1.80;;;33.70;56.70;;;;;;5031637;28;20021;-77
2023/07/16 12:17:33;;;;;;;2.10;1.17;;;33.80;56.10;;;;;;5031731;28;20022;-77
2023/07/16 12:19:59;;;;;;;1.75;1.65;;;33.80;57.30;;;;;;5033128;28;20026;-77
2023/07/16 12:22:25;;;;;;;1.58;1.48;;;33.80;56.10;;;;;;5033570;28;20056;-77
2023/07/16 12:24:51;;;;;;;1.45;1.38;;;34.00;54.90;;;;;;5033403;28;20100;-76
2023/07/16 12:27:18;;;;;;;1.63;1.52;;;34.30;53.80;;;;;;5033409;28;20053;-77
2023/07/16 12:29:44;;;;;;;1.33;1.27;;;34.30;54.50;;;;;;5033484;28;20022;-78
2023/07/16 12:32:10;;;;;;;1.77;1.27;;;34.10;53.80;;;;;;5032744;28;20104;-75
2023/07/16 12:34:36;;;;;;;3.17;1.50;;;34.20;55.30;;;;;;5032707;28;20021;-75
2023/07/16 12:37:02;;;;;;;2.13;1.85;;;34.60;55.40;;;;;;5034984;28;20559;-78
2023/07/16 12:39:28;;;;;;;1.40;1.30;;;34.70;53.60;;;;;;5035051;28;20055;-77
2023/07/16 12:41:54;;;;;;;2.45;1.40;;;34.70;51.30;;;;;;5035975;28;20036;-75